Time;durP1;ratioP1;P1;durP2;ratioP2;P2;SDS_P1;SDS_P2;PMS_P1;PMS_P2;Temp;Humidity;BMP_temperature;BMP_pressure;BME280_temperature;BME280_humidity;BME280_pressure;Samples;Min_cycle;Max_cycle;Signal;HPM_P1;HPM_P2
2023/10/16 00:02:13;;;;;;;0.40;0.40;;;;;;;7.95;92.42;102542.59;4975612;28;97937;-28
2023/10/16 00:04:45;;;;;;;0.10;0.10;;;;;;;7.98;92.32;102549.72;4974046;28;100766;-28
2023/10/16 00:07:27;;;;;;;0.60;0.40;;;;;;;7.97;93.02;102546.16;4975057;28;96646;-28
2023/10/16 00:09:55;;;;;;;0.10;0.00;;;;;;;7.97;93.31;102546.16;4974312;28;96809;-31
2023/10/16 00:12:20;;;;;;;0.20;0.20;;;;;;;8.00;93.66;102550.59;4973988;28;100861;-28
2023/10/16 00:14:46;;;;;;;0.90;0.30;;;;;;;7.99;92.90;102552.41;4975415;28;97841;-28
2023/10/16 00:17:14;;;;;;;0.32;0.20;;;;;;;8.03;93.18;102556.81;4975673;28;96482;-28
2023/10/16 00:19:40;;;;;;;0.45;0.17;;;;;;;8.09;92.95;102570.13;4974011;28;96720;-28
2023/10/16 00:22:18;;;;;;;1.52;0.60;;;;;;;8.11;93.39;102570.13;4973898;28;100563;-28
2023/10/16 00:24:47;;;;;;;0.25;0.20;;;;;;;8.13;93.51;102576.38;4974261;28;101268;-28
2023/10/16 00:27:16;;;;;;;2.00;0.38;;;;;;;8.17;93.16;102579.88;4973808;28;96582;-28
2023/10/16 00:29:44;;;;;;;0.30;0.30;;;;;;;8.20;92.45;102577.09;4973958;28;96824;-28
2023/10/16 00:32:11;;;;;;;0.40;0.25;;;;;;;8.21;93.50;102579.75;4973284;28;100754;-28
2023/10/16 00:34:37;;;;;;;0.80;0.22;;;;;;;8.16;93.16;102562.78;4973734;28;101075;-29
2023/10/16 00:37:04;;;;;;;0.43;0.30;;;;;;;8.17;93.27;102564.56;4973896;28;96680;-29
2023/10/16 00:39:30;;;;;;;1.60;0.35;;;;;;;8.16;93.26;102553.81;4973857;28;96656;-28
2023/10/16 00:41:57;;;;;;;0.55;0.35;;;;;;;8.12;93.67;102544.00;4973665;28;100740;-28
2023/10/16 00:44:24;;;;;;;2.03;0.35;;;;;;;8.21;94.35;102563.56;4973310;28;100699;-28
2023/10/16 00:46:53;;;;;;;1.27;0.20;;;;;;;8.23;94.61;102564.41;4973474;28;96700;-30
2023/10/16 00:49:19;;;;;;;1.40;0.50;;;;;;;8.25;93.38;102564.41;4973819;28;96802;-28
2023/10/16 00:51:45;;;;;;;0.10;0.10;;;;;;;8.21;94.20;102563.56;4973151;28;100764;-29
2023/10/16 00:54:18;;;;;;;0.68;0.35;;;;;;;8.25;94.25;102565.28;4973344;28;101014;-28
2023/10/16 00:56:45;;;;;;;0.20;0.10;;;;;;;8.23;94.64;102558.16;4974356;28;96502;-28
2023/10/16 00:59:17;;;;;;;0.80;0.50;;;;;;;8.22;94.63;102545.56;4973479;28;96801;-28
2023/10/16 01:01:46;;;;;;;0.50;0.40;;;;;;;8.26;94.46;102552.66;4973377;28;101006;-28
2023/10/16 01:04:17;;;;;;;1.38;0.20;;;;;;;8.24;94.92;102546.41;4974438;28;97425;-28
2023/10/16 01:06:44;;;;;;;1.83;0.17;;;;;;;8.24;94.79;102541.88;4972739;28;96674;-28
2023/10/16 01:09:10;;;;;;;0.47;0.15;;;;;;;8.28;95.60;102551.69;4974613;28;96909;-28
2023/10/16 01:11:39;;;;;;;0.30;0.20;;;;;;;8.26;95.27;102552.66;4973077;28;100881;-29
2023/10/16 01:14:05;;;;;;;0.40;0.20;;;;;;;8.23;95.21;102541.94;4974755;28;97230;-28
2023/10/16 01:16:32;;;;;;;0.47;0.20;;;;;;;8.25;95.24;102543.69;4974710;28;96478;-29
2023/10/16 01:19:00;;;;;;;0.08;0.08;;;;;;;8.22;94.77;102542.84;4973076;28;97353;-28
2023/10/16 01:21:27;;;;;;;0.40;0.32;;;;;;;8.22;94.96;102535.66;4972385;28;100946;-28
2023/10/16 01:23:52;;;;;;;0.10;0.10;;;;;;;8.16;95.35;102533.09;4972825;28;98854;-29
2023/10/16 01:26:18;;;;;;;0.63;0.43;;;;;;;8.18;95.06;102531.25;4974465;28;96586;-29
2023/10/16 01:28:44;;;;;;;0.28;0.22;;;;;;;8.16;95.10;102534.91;4974563;28;96748;-29
2023/10/16 01:31:09;;;;;;;0.57;0.30;;;;;;;8.14;95.13;102528.66;4974237;28;97777;-28
2023/10/16 01:33:35;;;;;;;0.75;0.52;;;;;;;8.13;95.05;102525.09;4973981;28;97861;-28
2023/10/16 01:36:00;;;;;;;0.30;0.20;;;;;;;8.13;95.14;102524.19;4974338;28;96551;-29
2023/10/16 01:38:27;;;;;;;1.52;0.52;;;;;;;8.13;95.23;102521.47;4974879;28;96738;-28
2023/10/16 01:41:05;;;;;;;0.85;0.30;;;;;;;8.11;95.21;102517.97;4974136;28;97939;-28
2023/10/16 01:43:34;;;;;;;0.75;0.30;;;;;;;8.06;95.55;102518.06;4973780;28;99232;-28
2023/10/16 01:46:08;;;;;;;0.10;0.10;;;;;;;8.07;95.41;102519.81;4971849;28;97067;-28
2023/10/16 01:48:39;;;;;;;0.35;0.20;;;;;;;8.06;95.24;102531.56;4972424;28;96780;-28
2023/10/16 01:51:11;;;;;;;0.60;0.40;;;;;;;8.01;95.17;102531.66;4974153;28;98052;-28
2023/10/16 01:53:39;;;;;;;0.50;0.22;;;;;;;7.94;95.26;102527.34;4972416;28;101368;-28
2023/10/16 01:56:12;;;;;;;0.57;0.30;;;;;;;7.91;95.24;102521.13;4973936;28;96510;-28
2023/10/16 01:58:38;;;;;;;0.52;0.30;;;;;;;7.88;95.15;102520.25;4972531;28;96771;-28
2023/10/16 02:01:04;;;;;;;0.45;0.43;;;;;;;7.91;95.26;102521.13;4972307;28;101271;-28
2023/10/16 02:03:29;;;;;;;0.30;0.20;;;;;;;7.87;95.26;102518.50;4974231;28;97820;-28
2023/10/16 02:05:55;;;;;;;0.28;0.28;;;;;;;7.82;95.15;102509.63;4973875;28;96643;-28
2023/10/16 02:08:20;;;;;;;0.73;0.43;;;;;;;7.82;95.32;102506.03;4973938;28;96726;-28
2023/10/16 02:10:46;;;;;;;0.28;0.25;;;;;;;7.86;95.38;102515.81;4972884;28;99624;-29
2023/10/16 02:13:12;;;;;;;0.93;0.30;;;;;;;7.83;95.35;102518.59;4973492;28;97863;-28
2023/10/16 02:15:38;;;;;;;0.47;0.30;;;;;;;7.77;95.43;102510.63;4973682;28;96591;-28
2023/10/16 02:18:18;;;;;;;1.02;0.60;;;;;;;7.76;95.37;102514.28;4972043;28;96944;-28
2023/10/16 02:20:46;;;;;;;0.68;0.50;;;;;;;7.69;95.38;102512.63;4972094;28;101147;-28
2023/10/16 02:23:12;;;;;;;2.58;0.40;;;;;;;7.64;95.21;102508.22;4973192;28;99121;-28
2023/10/16 02:25:37;;;;;;;0.47;0.25;;;;;;;7.66;95.46;102508.19;4972091;28;96601;-29
2023/10/16 02:28:13;;;;;;;1.55;0.50;;;;;;;7.69;95.49;102515.34;4973888;28;96743;-28
2023/10/16 02:30:40;;;;;;;1.67;0.28;;;;;;;7.65;95.26;102510.03;4973163;28;99537;-29
2023/10/16 02:33:14;;;;;;;0.30;0.30;;;;;;;7.66;95.54;102505.50;4971759;28;100833;-29
2023/10/16 02:35:48;;;;;;;0.20;0.20;;;;;;;7.61;95.88;102502.91;4971534;28;97368;-28
2023/10/16 02:38:14;;;;;;;4.75;0.22;;;;;;;7.65;95.87;102509.09;4972077;28;97544;-28
2023/10/16 02:40:43;;;;;;;0.10;0.10;;;;;;;7.60;95.72;102501.16;4972979;28;99178;-29
2023/10/16 02:43:13;;;;;;;0.70;0.28;;;;;;;7.60;96.02;102492.16;4971618;28;101320;-28
2023/10/16 02:45:42;;;;;;;0.25;0.20;;;;;;;7.66;95.89;102508.19;4972444;28;97115;-28
2023/10/16 02:48:10;;;;;;;0.20;0.20;;;;;;;7.65;96.12;102506.41;4971768;28;96985;-29
2023/10/16 02:50:36;;;;;;;0.08;0.08;;;;;;;7.65;96.20;102501.00;4971379;28;101005;-28
2023/10/16 02:53:07;;;;;;;0.08;0.08;;;;;;;7.66;96.11;102494.72;4973465;28;98285;-27
2023/10/16 02:55:32;;;;;;;0.10;0.10;;;;;;;7.66;96.05;102492.03;4971837;28;96556;-28
2023/10/16 02:58:04;;;;;;;0.25;0.25;;;;;;;7.57;96.03;102468.84;4973222;28;96833;-28
2023/10/16 03:00:37;;;;;;;0.90;0.30;;;;;;;7.64;95.97;102481.25;4971110;28;100951;-28
2023/10/16 03:03:05;;;;;;;1.55;0.30;;;;;;;7.70;95.93;102485.63;4971281;28;101468;-28
2023/10/16 03:05:31;;;;;;;0.43;0.28;;;;;;;7.69;95.94;102478.44;4971587;28;96715;-28
2023/10/16 03:07:56;;;;;;;0.35;0.20;;;;;;;7.71;95.74;102476.63;4973063;28;96717;-28
2023/10/16 03:10:22;;;;;;;0.20;0.20;;;;;;;7.76;96.12;102480.09;4972436;28;109752;-29
2023/10/16 03:12:51;;;;;;;0.30;0.30;;;;;;;7.70;96.17;102466.75;4972754;28;97776;-28
2023/10/16 03:15:20;;;;;;;0.30;0.20;;;;;;;7.73;95.99;102479.28;4972759;28;96616;-28
2023/10/16 03:17:51;;;;;;;0.00;0.00;;;;;;;7.73;96.10;102482.88;4971859;28;96913;-30
2023/10/16 03:20:21;;;;;;;1.13;0.50;;;;;;;7.71;96.22;102479.31;4971208;28;100941;-28
2023/10/16 03:22:48;;;;;;;0.28;0.13;;;;;;;7.67;96.09;102466.81;4971253;28;98942;-28
2023/10/16 03:25:30;;;;;;;1.08;0.38;;;;;;;7.70;95.69;102480.25;4970813;28;96546;-28
2023/10/16 03:27:56;;;;;;;0.75;0.22;;;;;;;7.70;95.75;102480.25;4971183;28;96807;-29
2023/10/16 03:30:26;;;;;;;0.28;0.20;;;;;;;7.71;96.01;102478.44;4971736;28;100712;-28
2023/10/16 03:32:53;;;;;;;0.20;0.20;;;;;;;7.66;96.43;102481.22;4972253;28;99650;-28
2023/10/16 03:35:25;;;;;;;0.32;0.20;;;;;;;7.69;96.51;102485.66;4972361;28;96615;-28
2023/10/16 03:37:52;;;;;;;0.63;0.20;;;;;;;7.69;95.98;102481.16;4971262;28;96739;-30
2023/10/16 03:40:19;;;;;;;0.00;0.00;;;;;;;7.75;96.29;102490.94;4970967;28;98872;-28
2023/10/16 03:42:45;;;;;;;0.57;0.40;;;;;;;7.73;96.42;102476.59;4971308;28;100821;-27
2023/10/16 03:45:13;;;;;;;0.10;0.10;;;;;;;7.68;95.95;102470.41;4970453;28;96796;-29
2023/10/16 03:47:38;;;;;;;0.00;0.00;;;;;;;7.75;96.28;102474.75;4971059;28;96710;-28
2023/10/16 03:50:05;;;;;;;1.08;0.17;;;;;;;7.78;96.23;102480.06;4971637;28;99228;-28
2023/10/16 03:52:30;;;;;;;0.38;0.20;;;;;;;7.77;96.45;102476.47;4971034;28;101813;-28
2023/10/16 03:54:55;;;;;;;0.00;0.00;;;;;;;7.80;96.47;102478.22;4972374;28;96534;-28
2023/10/16 03:57:22;;;;;;;0.13;0.08;;;;;;;7.84;96.41;102485.28;4972030;28;104563;-29
2023/10/16 03:59:48;;;;;;;0.30;0.20;;;;;;;7.86;96.45;102481.66;4970764;28;100788;-28
2023/10/16 04:02:19;;;;;;;0.20;0.20;;;;;;;7.88;96.43;102481.59;4971869;28;99102;-28
2023/10/16 04:04:46;;;;;;;0.17;0.15;;;;;;;7.87;96.15;102480.72;4970810;28;97082;-29
2023/10/16 04:07:14;;;;;;;0.05;0.00;;;;;;;7.85;96.07;102470.91;4971195;28;96912;-28
2023/10/16 04:09:49;;;;;;;0.00;0.00;;;;;;;7.86;96.39;102476.28;4970481;28;100948;-28
2023/10/16 04:12:23;;;;;;;0.28;0.22;;;;;;;7.88;96.45;102479.78;4970617;28;101522;-28
2023/10/16 04:14:55;;;;;;;0.13;0.13;;;;;;;7.90;96.49;102470.78;4970152;28;96961;-28
2023/10/16 04:17:24;;;;;;;;;;;;;;;7.95;96.53;102472.44;4972512;28;96666;-29
2023/10/16 04:19:52;;;;;;;1.02;0.32;;;;;;;7.92;96.87;102468.94;4970505;28;100752;-28
2023/10/16 04:22:19;;;;;;;0.98;0.13;;;;;;;7.92;96.48;102452.75;4970179;28;101694;-28
2023/10/16 04:24:45;;;;;;;0.20;0.20;;;;;;;7.95;96.70;102456.25;4970703;28;96580;-28
2023/10/16 04:37:55;;;;;;;1.35;0.20;;;;;;;7.96;96.56;102449.03;4972351;28;96570;-28
2023/10/16 04:42:22;;;;;;;0.22;0.17;;;;;;;8.02;96.54;102447.06;4969834;28;101151;-28
2023/10/16 04:43:37;;;;;;;0.45;0.25;;;;;;;8.06;96.27;102458.69;4974271;28;98877;-29
2023/10/16 04:46:20;;;;;;;0.13;0.00;;;;;;;8.03;96.37;102451.56;4974599;28;96780;-28
2023/10/16 04:48:51;;;;;;;0.15;0.03;;;;;;;8.03;96.31;102450.66;4975007;28;96676;-28
2023/10/16 04:51:22;;;;;;;0.40;0.22;;;;;;;7.99;96.96;102447.16;4974965;28;97989;-29
2023/10/16 04:54:13;;;;;;;0.65;0.52;;;;;;;7.98;96.98;102441.78;4974740;28;99545;-28
2023/10/16 04:59:37;;;;;;;1.30;0.52;;;;;;;7.99;96.99;102436.38;4964327;28;96879;-28
2023/10/16 05:02:18;;;;;;;0.40;0.20;;;;;;;7.99;96.67;102439.06;4973486;28;100983;-29
2023/10/16 05:05:06;;;;;;;0.20;0.10;;;;;;;7.97;96.66;102432.81;4973334;28;100792;-28
2023/10/16 05:07:53;;;;;;;0.60;0.43;;;;;;;7.95;96.70;102426.56;4973080;28;97068;-28
2023/10/16 05:10:45;;;;;;;0.60;0.20;;;;;;;7.98;96.66;102431.88;4973350;28;97037;-28
2023/10/16 05:13:39;;;;;;;1.55;0.50;;;;;;;8.03;97.07;102437.16;4974021;28;98871;-28
2023/10/16 05:16:28;;;;;;;0.43;0.43;;;;;;;8.00;97.17;102426.47;4973681;28;97368;-29
2023/10/16 05:18:46;;;;;;;0.28;0.15;;;;;;;8.05;96.80;102430.78;4973835;28;96595;-28
2023/10/16 06:16:17;;;;;;;0.65;0.28;;;;;;;8.26;97.40;102428.47;4971919;28;96592;-35
2023/10/16 06:18:43;;;;;;;0.90;0.35;;;;;;;8.28;97.44;102437.44;4971173;28;97964;-33
2023/10/16 06:21:08;;;;;;;0.35;0.28;;;;;;;8.34;97.56;102437.25;4971244;28;99235;-29
2023/10/16 06:23:33;;;;;;;0.35;0.22;;;;;;;8.35;97.41;102441.75;4971117;28;97125;-34
2023/10/16 06:26:03;;;;;;;0.40;0.30;;;;;;;8.38;97.95;102433.53;4970952;28;97624;-29
2023/10/16 06:28:29;;;;;;;5.18;0.88;;;;;;;8.37;97.91;102436.31;4970282;28;97912;-33
2023/10/16 06:30:54;;;;;;;1.50;0.40;;;;;;;8.41;97.30;102438.00;4969846;28;98967;-28
2023/10/16 06:33:20;;;;;;;0.95;0.45;;;;;;;8.39;97.35;102432.63;4971766;28;96555;-28
2023/10/16 06:35:47;;;;;;;1.27;0.38;;;;;;;8.44;97.82;102455.03;4973093;28;101476;-28
2023/10/16 06:38:14;;;;;;;1.13;0.35;;;;;;;8.42;97.64;102453.31;4973223;28;97992;-28
2023/10/16 06:40:40;;;;;;;0.50;0.25;;;;;;;8.43;97.58;102447.84;4971830;28;100804;-28
2023/10/16 06:43:15;;;;;;;0.20;0.20;;;;;;;8.48;97.34;102454.00;4973282;28;96601;-29
2023/10/16 06:45:42;;;;;;;0.20;0.20;;;;;;;8.52;97.46;102460.22;4973176;28;96928;-28
2023/10/16 06:48:15;;;;;;;0.20;0.20;;;;;;;8.55;96.82;102462.81;4971838;28;101102;-28
2023/10/16 06:50:53;;;;;;;2.70;0.40;;;;;;;8.52;96.67;102456.63;4972781;28;99411;-28
2023/10/16 06:53:19;;;;;;;0.35;0.20;;;;;;;8.57;97.21;102460.09;4971252;28;97323;-28
2023/10/16 06:55:45;;;;;;;0.25;0.25;;;;;;;8.62;97.65;102458.16;4973083;28;96786;-28
2023/10/16 06:58:11;;;;;;;0.40;0.20;;;;;;;8.64;97.54;102459.88;4971396;28;101293;-29
2023/10/16 07:00:38;;;;;;;1.48;0.15;;;;;;;8.65;97.93;102460.75;4972667;28;99208;-28
2023/10/16 07:03:09;;;;;;;2.38;0.20;;;;;;;8.66;97.64;102449.03;4973070;28;96571;-29
2023/10/16 07:05:44;;;;;;;0.98;0.43;;;;;;;8.66;97.85;102452.63;4970726;28;96678;-28
2023/10/16 07:08:11;;;;;;;0.30;0.30;;;;;;;8.72;97.60;102454.25;4971416;28;100882;-28
2023/10/16 07:10:42;;;;;;;0.30;0.30;;;;;;;8.70;97.26;102454.31;4971599;28;101386;-30
2023/10/16 07:13:10;;;;;;;1.05;0.32;;;;;;;8.79;96.92;102465.78;4971145;28;96630;-28
2023/10/16 07:15:35;;;;;;;1.02;0.52;;;;;;;8.84;96.67;102467.44;4971363;28;96875;-29
2023/10/16 07:18:13;;;;;;;1.92;0.35;;;;;;;8.81;96.81;102454.00;4972245;28;97967;-29
2023/10/16 07:21:17;;;;;;;6.57;0.22;;;;;;;8.83;97.29;102457.56;4972533;28;99209;-28
2023/10/16 07:23:34;;;;;;;0.77;0.23;;;;;;;8.87;97.03;102463.78;4972038;28;96891;-28
2023/10/16 07:26:01;;;;;;;0.20;0.20;;;;;;;8.92;96.79;102461.81;4971218;28;97022;-30
2023/10/16 07:28:28;;;;;;;0.43;0.32;;;;;;;8.96;97.19;102468.88;4970960;28;101041;-28
2023/10/16 07:30:57;;;;;;;2.38;0.40;;;;;;;8.95;97.63;102456.31;4971003;28;101053;-29
2023/10/16 07:33:23;;;;;;;0.90;0.35;;;;;;;9.02;97.08;102455.22;4972447;28;96471;-28
2023/10/16 07:35:53;;;;;;;1.05;0.45;;;;;;;9.06;96.71;102461.44;4972617;28;96838;-28
2023/10/16 07:38:21;;;;;;;1.58;0.45;;;;;;;9.04;96.53;102461.47;4972549;28;97569;-28
2023/10/16 07:40:55;;;;;;;0.52;0.35;;;;;;;9.11;96.61;102470.28;4972273;28;97831;-28
2023/10/16 07:43:26;;;;;;;1.55;0.47;;;;;;;9.10;96.86;102465.78;4970461;28;96851;-29
2023/10/16 07:48:45;;;;;;;0.40;0.35;;;;;;;9.19;96.82;102461.94;4972094;28;98354;-28
2023/10/16 07:51:16;;;;;;;0.93;0.40;;;;;;;9.18;97.28;102452.94;4972476;28;97342;-28
2023/10/16 07:53:42;;;;;;;1.60;0.40;;;;;;;9.23;96.80;102461.81;4972423;28;96774;-28
2023/10/16 07:56:28;;;;;;;0.32;0.22;;;;;;;9.27;96.94;102468.91;4970897;28;96828;-28
2023/10/16 08:01:54;;;;;;;0.60;0.40;;;;;;;9.31;96.98;102465.16;4970595;28;97072;-28
2023/10/16 08:06:52;;;;;;;1.08;0.40;;;;;;;9.46;97.22;102473.72;4972112;28;96734;-28
2023/10/16 08:11:58;;;;;;;0.77;0.22;;;;;;;9.66;97.66;102463.19;4970101;28;97991;-28
2023/10/16 08:14:31;;;;;;;2.28;0.50;;;;;;;9.79;96.99;102467.25;4972203;28;96508;-28
2023/10/16 08:17:14;;;;;;;1.30;0.43;;;;;;;9.78;96.63;102451.97;4974712;28;96470;-29
2023/10/16 08:19:39;;;;;;;0.85;0.50;;;;;;;9.91;96.06;102463.25;4973816;28;101156;-28
2023/10/16 08:22:08;;;;;;;1.55;0.60;;;;;;;9.94;96.34;102451.47;4975226;28;99193;-30
2023/10/16 08:24:34;;;;;;;1.90;0.50;;;;;;;10.04;95.86;102454.75;4975570;28;96668;-28
2023/10/16 08:27:11;;;;;;;0.57;0.28;;;;;;;10.09;96.00;102461.78;4974283;28;96847;-28
2023/10/16 08:29:50;;;;;;;0.85;0.43;;;;;;;10.09;95.58;102450.06;4973842;28;98853;-28
2023/10/16 08:35:00;;;;;;;1.25;0.20;;;;;;;10.20;95.76;102446.06;4975093;28;96754;-28
2023/10/16 08:37:26;;;;;;;0.30;0.30;;;;;;;10.26;95.32;102449.50;4975376;28;97076;-28
2023/10/16 08:39:51;;;;;;;2.33;0.30;;;;;;;10.27;95.47;102451.25;4975088;28;101729;-28
2023/10/16 08:42:20;;;;;;;0.85;0.32;;;;;;;10.23;95.02;102446.91;4975127;28;98049;-28
2023/10/16 08:47:32;;;;;;;0.10;0.08;;;;;;;10.32;95.58;102463.75;4975769;28;96600;-28
2023/10/16 08:49:59;;;;;;;0.77;0.40;;;;;;;10.34;95.20;102453.72;4973473;28;100828;-28
2023/10/16 08:52:33;;;;;;;0.20;0.17;;;;;;;10.37;95.23;102458.16;4973871;28;100895;-29
2023/10/16 08:55:02;;;;;;;0.90;0.35;;;;;;;10.43;95.13;102457.06;4974944;28;96668;-28
2023/10/16 08:57:29;;;;;;;0.40;0.28;;;;;;;10.47;94.98;102454.19;4974772;28;96746;-28
2023/10/16 08:59:58;;;;;;;0.10;0.10;;;;;;;10.50;94.49;102459.50;4973037;28;101073;-28
2023/10/16 09:02:26;;;;;;;0.45;0.20;;;;;;;10.56;94.87;102459.28;4973178;28;99495;-29
2023/10/16 09:04:52;;;;;;;0.08;0.05;;;;;;;10.63;94.44;102451.84;4974689;28;96791;-28
2023/10/16 09:07:19;;;;;;;1.80;0.55;;;;;;;10.83;93.55;102468.25;4973321;28;96913;-28
2023/10/16 09:09:48;;;;;;;0.20;0.10;;;;;;;10.96;93.44;102459.66;4974336;28;97869;-28
2023/10/16 09:12:24;;;;;;;0.90;0.28;;;;;;;11.04;93.07;102449.41;4973172;28;100722;-28
2023/10/16 09:14:50;;;;;;;0.25;0.20;;;;;;;11.08;92.71;102448.31;4973122;28;96718;-29
2023/10/16 09:17:24;;;;;;;0.45;0.10;;;;;;;11.11;92.42;102450.94;4975097;28;96860;-28
2023/10/16 09:19:50;;;;;;;0.82;0.30;;;;;;;11.19;92.11;102453.34;4973033;28;100945;-28
2023/10/16 09:22:17;;;;;;;1.05;0.20;;;;;;;11.30;92.04;102447.50;4972803;28;101045;-28
2023/10/16 09:24:46;;;;;;;0.40;0.20;;;;;;;11.45;91.71;102455.06;4972630;28;97414;-29
2023/10/16 09:27:16;;;;;;;0.20;0.17;;;;;;;11.54;91.45;102449.28;4972554;28;96938;-28
2023/10/16 09:29:53;;;;;;;0.60;0.35;;;;;;;11.64;91.25;102444.34;4972866;28;98974;-28
2023/10/16 09:32:39;;;;;;;5.45;0.60;;;;;;;11.76;90.84;102452.00;4972818;28;101546;-28
2023/10/16 09:35:06;;;;;;;0.35;0.30;;;;;;;11.81;89.71;102438.25;4972965;28;96597;-28
2023/10/16 09:37:36;;;;;;;1.30;0.63;;;;;;;11.88;89.80;102431.66;4972947;28;96867;-28
2023/10/16 09:40:18;;;;;;;0.43;0.25;;;;;;;11.95;89.51;102429.56;4972724;28;101023;-28
2023/10/16 09:42:55;;;;;;;0.20;0.20;;;;;;;12.03;89.63;102430.09;4974420;28;99165;-28
2023/10/16 09:45:25;;;;;;;2.78;0.38;;;;;;;12.12;89.32;102443.31;4973893;28;96838;-28
2023/10/16 09:47:57;;;;;;;1.65;0.30;;;;;;;12.20;89.19;102440.25;4972695;28;96887;-28
2023/10/16 09:50:24;;;;;;;0.20;0.10;;;;;;;12.28;88.40;102433.56;4971894;28;101123;-28
2023/10/16 09:52:49;;;;;;;0.30;0.20;;;;;;;12.39;88.34;102438.50;4972549;28;100693;-29
2023/10/16 09:55:18;;;;;;;0.50;0.30;;;;;;;12.50;88.27;102435.31;4974105;28;96686;-29
2023/10/16 09:57:53;;;;;;;0.90;0.30;;;;;;;12.61;87.79;102434.84;4972501;28;96907;-28
2023/10/16 10:00:28;;;;;;;0.38;0.10;;;;;;;12.63;87.08;102436.56;4972354;28;101087;-28
2023/10/16 10:03:05;;;;;;;2.92;0.60;;;;;;;12.68;87.22;102425.44;4973829;28;97912;-28
2023/10/16 10:05:48;;;;;;;0.90;0.40;;;;;;;12.86;87.40;102427.34;4974038;28;96658;-28
2023/10/16 10:08:23;;;;;;;1.23;0.35;;;;;;;12.99;87.05;102433.13;4972857;28;96798;-28
2023/10/16 10:14:11;;;;;;;0.75;0.35;;;;;;;13.34;85.86;102425.16;4951407;28;97252;-28
2023/10/16 10:16:46;;;;;;;0.30;0.20;;;;;;;13.52;84.54;102432.44;4971287;28;96593;-28
2023/10/16 10:19:24;;;;;;;0.47;0.38;;;;;;;13.59;84.36;102414.84;4973589;28;96750;-29
2023/10/16 10:21:53;;;;;;;4.38;0.40;;;;;;;13.77;84.18;102425.78;4971935;28;100955;-28
2023/10/16 10:24:20;;;;;;;0.55;0.22;;;;;;;13.69;83.64;102422.56;4971935;28;100893;-29
2023/10/16 10:26:50;;;;;;;0.63;0.40;;;;;;;13.66;83.70;102426.31;4971082;28;96947;-28
2023/10/16 10:29:16;;;;;;;0.98;0.28;;;;;;;13.74;81.19;102428.66;4975416;28;96946;-29
2023/10/16 10:31:46;;;;;;;0.50;0.28;;;;;;;13.94;82.46;102427.66;4971977;28;101213;-28
2023/10/16 10:34:23;;;;;;;1.50;0.47;;;;;;;13.96;79.32;102423.88;4978133;28;100768;-28
2023/10/16 10:36:53;;;;;;;1.75;0.20;;;;;;;14.10;79.26;102425.91;4991875;28;96603;-28
2023/10/16 10:39:21;;;;;;;0.40;0.38;;;;;;;14.24;78.47;102430.66;4979600;28;96972;-30
2023/10/16 10:42:05;;;;;;;0.93;0.17;;;;;;;14.39;78.79;102426.25;4972654;28;99823;-28
2023/10/16 10:44:41;;;;;;;2.10;0.45;;;;;;;14.47;76.84;102431.28;4973054;28;99235;-28
2023/10/16 10:47:20;;;;;;;0.32;0.22;;;;;;;14.57;77.85;102421.72;4992319;28;96586;-28
2023/10/16 10:49:46;;;;;;;0.85;0.40;;;;;;;14.64;78.23;102421.31;4990715;28;96877;-29
2023/10/16 10:52:14;;;;;;;0.10;0.10;;;;;;;14.62;75.59;102425.97;4991403;28;100857;-28
2023/10/16 10:54:49;;;;;;;0.15;0.15;;;;;;;14.55;76.22;102418.19;4990445;28;99484;-28
2023/10/16 10:57:24;;;;;;;0.55;0.40;;;;;;;14.51;75.99;102419.28;4993058;28;97099;-28
2023/10/16 11:05:08;;;;;;;0.45;0.20;;;;;;;14.41;77.20;102410.69;4992954;28;97845;-28
2023/10/16 11:07:39;;;;;;;0.55;0.20;;;;;;;14.44;73.84;102416.88;4990851;28;97973;-28
2023/10/16 11:10:06;;;;;;;0.17;0.10;;;;;;;14.40;75.06;102408.94;4990423;28;96849;-28
2023/10/16 11:12:32;;;;;;;0.30;0.20;;;;;;;14.53;73.23;102409.16;4991089;28;101650;-28
2023/10/16 11:14:58;;;;;;;0.25;0.13;;;;;;;14.55;75.63;102399.09;4992652;28;97822;-28
2023/10/16 11:17:30;;;;;;;1.13;0.32;;;;;;;14.63;73.57;102400.47;4992708;28;96555;-28
2023/10/16 11:19:57;;;;;;;0.00;0.00;;;;;;;14.73;71.81;102395.41;4991182;28;96818;-28
2023/10/16 11:22:27;;;;;;;0.05;0.05;;;;;;;14.60;70.22;102391.56;4992263;28;99244;-28
2023/10/16 11:24:53;;;;;;;0.35;0.15;;;;;;;14.63;73.30;102391.38;4991156;28;100741;-29
2023/10/16 11:27:22;;;;;;;0.93;0.20;;;;;;;14.58;72.27;102394.34;4991069;28;96727;-29
2023/10/16 11:29:48;;;;;;;0.50;0.20;;;;;;;14.60;71.26;102394.28;4990975;28;96847;-28
2023/10/16 11:32:17;;;;;;;0.25;0.10;;;;;;;14.59;70.55;102389.81;4991517;28;99641;-28
2023/10/16 11:34:44;;;;;;;0.77;0.20;;;;;;;14.73;72.96;102391.75;4990841;28;100969;-28
2023/10/16 11:37:12;;;;;;;0.82;0.20;;;;;;;14.66;69.76;102383.06;4992191;28;96587;-30
2023/10/16 11:39:38;;;;;;;0.90;0.22;;;;;;;14.57;67.80;102370.78;4990531;28;96875;-28
2023/10/16 11:42:03;;;;;;;1.13;0.20;;;;;;;14.58;71.81;102368.94;4991954;28;99542;-29
2023/10/16 11:44:32;;;;;;;0.00;0.00;;;;;;;14.57;71.17;102367.19;4991996;28;97797;-29
2023/10/16 11:47:01;;;;;;;0.15;0.10;;;;;;;14.47;71.68;102366.75;4991943;28;97060;-28
2023/10/16 11:49:30;;;;;;;0.32;0.10;;;;;;;14.46;72.08;102354.06;4972232;28;96969;-28
2023/10/16 11:54:57;;;;;;;2.60;0.15;;;;;;;14.55;71.48;102355.47;4970268;28;97026;-28
2023/10/16 11:57:24;;;;;;;0.57;0.28;;;;;;;14.63;72.98;102354.09;4968487;28;97200;-29
2023/10/16 11:59:52;;;;;;;0.43;0.28;;;;;;;14.59;71.74;102352.50;5003475;28;96822;-29
2023/10/16 12:02:19;;;;;;;0.85;0.20;;;;;;;14.62;70.31;102356.91;4974940;28;97046;-29
2023/10/16 12:04:46;;;;;;;0.55;0.22;;;;;;;14.56;69.06;102343.59;4990409;28;98840;-29
2023/10/16 12:07:13;;;;;;;0.82;0.10;;;;;;;14.52;67.45;102348.31;4989653;28;96741;-29
2023/10/16 12:09:48;;;;;;;1.38;0.50;;;;;;;14.50;69.72;102341.19;4987651;28;97157;-29
2023/10/16 12:12:19;;;;;;;1.15;0.47;;;;;;;14.64;70.47;102342.22;4989117;28;97990;-34
2023/10/16 12:14:49;;;;;;;0.30;0.08;;;;;;;14.70;69.85;102346.44;4988137;28;100862;-28
2023/10/16 12:17:19;;;;;;;0.35;0.20;;;;;;;14.75;71.23;102344.34;4989256;28;97100;-30
2023/10/16 12:19:45;;;;;;;1.25;0.32;;;;;;;14.64;69.39;102339.50;4987953;28;96999;-29
2023/10/16 12:22:15;;;;;;;3.90;0.65;;;;;;;14.56;70.70;102338.13;4987791;28;101239;-29
2023/10/16 12:24:43;;;;;;;1.77;0.28;;;;;;;14.45;70.75;102342.28;4990309;28;101265;-28
2023/10/16 12:27:09;;;;;;;0.20;0.10;;;;;;;14.30;71.05;102329.50;4990343;28;96668;-28
2023/10/16 12:29:35;;;;;;;1.25;0.30;;;;;;;14.23;70.50;102341.69;4990246;28;96934;-28
2023/10/16 12:32:03;;;;;;;0.03;0.03;;;;;;;14.15;71.27;102344.81;4991567;28;98021;-28
2023/10/16 12:34:32;;;;;;;1.02;0.22;;;;;;;14.07;70.68;102332.56;4989940;28;100926;-28
2023/10/16 12:37:00;;;;;;;0.88;0.20;;;;;;;14.10;71.55;102329.66;4990213;28;96683;-28
2023/10/16 12:39:26;;;;;;;3.97;0.40;;;;;;;14.02;72.14;102332.81;4981495;28;96956;-28
2023/10/16 12:41:55;;;;;;;1.25;0.20;;;;;;;13.99;70.18;102322.94;4990080;28;101299;-28
2023/10/16 12:44:24;;;;;;;1.00;0.10;;;;;;;14.03;72.91;102319.09;4991187;28;98770;-28
2023/10/16 12:46:52;;;;;;;0.68;0.10;;;;;;;14.08;71.79;102318.84;4988494;28;97136;-28
2023/10/16 12:49:17;;;;;;;0.80;0.55;;;;;;;14.13;71.34;102300.41;4989865;28;96838;-28
2023/10/16 12:51:43;;;;;;;1.02;0.40;;;;;;;14.13;70.00;102316.75;4991500;28;97927;-30
2023/10/16 12:54:12;;;;;;;0.43;0.20;;;;;;;14.13;70.58;102307.69;4991072;28;97815;-29
2023/10/16 12:56:40;;;;;;;0.50;0.05;;;;;;;14.15;70.23;102317.56;4990922;28;96722;-28
2023/10/16 12:59:08;;;;;;;0.25;0.20;;;;;;;14.12;70.43;102322.31;4989325;28;96847;-32
2023/10/16 13:01:33;;;;;;;2.80;0.13;;;;;;;14.12;70.67;102316.84;4987014;28;101419;-36
2023/10/16 13:04:03;;;;;;;1.48;0.25;;;;;;;14.10;72.02;102310.59;4991539;28;97569;-29
2023/10/16 13:06:30;;;;;;;0.20;0.20;;;;;;;14.12;72.75;102314.13;4992578;28;96971;-28
2023/10/16 13:08:57;;;;;;;1.23;0.30;;;;;;;14.06;71.09;102323.47;4992469;28;99078;-29
2023/10/16 13:11:22;;;;;;;0.93;0.30;;;;;;;14.01;71.80;102320.13;4991861;28;101018;-30
2023/10/16 13:13:48;;;;;;;1.63;0.68;;;;;;;14.00;71.86;102319.25;4991897;28;98283;-30
2023/10/16 13:16:15;;;;;;;1.27;0.32;;;;;;;13.94;70.14;102322.31;4990533;28;96891;-30
2023/10/16 13:18:40;;;;;;;0.88;0.15;;;;;;;13.88;70.93;102319.91;4990429;28;96905;-30